NY Terminal Aviation Weather Discussion (AFD) - Prepared: 837 PM EST MON JAN 26 2015
** HIGH IMPACT SNOW AND WIND EVENT EXPECTED TONIGHT INTO 
TUESDAY NIGHT **

IFR OR LOWER CONDS DEVELOPING FOR THE NEXT FEW HOURS. 

BLIZZARD CONDITIONS EXPECTED AT KJFK/KLGA/KISP/KGON OVERNIGHT.
2-4 INCH AN HOUR RATES DEVELOP FROM SE TO NW STARTING SHORTLY AFTER 
MIDNIGHT.

WINDS BACKING TO THE NNE LATE TONIGHT...WITH GUSTS INCREASING TO 
30-40KT..LOWEST FAR W TERMINALS AND STRONGEST FAR E TERMINALS.

5 Day General Aviation Outlook:

.OUTLOOK FOR 00Z WEDNESDAY THROUGH SATURDAY...
.TUES NIGHT...MVFR IN THE EVENING...BCMG VFR BY LATE. N-NW WINDS 
G25-35KT.
.WEDNESDAY...VFR. NW WINDS G25-30KT POSSIBLE.
.WEDNESDAY NIGHT-THURSDAY...VFR.
.THU NGT...MVFR OR LOWER CONDITIONS IN LGT SN. 
.FRI...CHC MVFR IN LGT SN IN THE AM. VFR WITH NW WNDS G25-30KT IN
THE AFTN.
.SAT...VFR.



*************************************************************************************
KJFK Terminal Weather:

FTNA35 KJFK 270247 RRE
KJFK 270239Z 2703/2806 03025G35KT 1/2SM SN FZFG OVC012
     FM270500 01027G38KT 1/2SM SN FZFG OVC008
     TEMPO 2706/2710 1/4SM +SN FZFG BLSN VV005
     FM271600 34025G35KT 1/2SM SN FZFG BLSN OVC008
     FM272200 33020G33KT 2SM -SN BLSN OVC020
     FM280300 33018G30KT 2SM -SHSN OVC030
KJFK FCSTER COMMENTS: VSBY COULD BE REDUCED TO 1/4SM AT TIMES 
THROUGH 01-02Z.

*************************************************************************************
KLGA Terminal Weather:
FTUS31 KLGA 270242 AAA
KLGA 270239Z 2703/2724 03024G34KT 1/2SM SN FZFG OVC012
     FM270500 01026G37KT 1/2SM SN FZFG OVC008
      TEMPO 2706/2710 1/4SM +SN FZFG BLSN VV005
     FM271600 34024G34KT 1/2SM SN FZFG BLSN OVC008
     FM272200 33020G33KT 2SM -SN BLSN OVC020
KLGA FCSTER COMMENTS: CIGS 1000-1500FT COULD PREVAIL THRU 04Z.

*************************************************************************************
KEWR Terminal Weather:
FTUS31 KEWR 270242 AAA
KEWR 270239Z 2703/2806 02022G30KT 3SM -SN OVC014
     FM270600 36024G34KT 1/2SM SN FZFG OVC008
      TEMPO 2708/2710 1/4SM +SN FZFG BLSN VV005
     FM271500 34023G33KT 1/2SM SN FZFG BLSN OVC008
     FM272100 34020G33KT 2SM -SN BLSN OVC020
     FM280300 33017G30KT 2SM -SHSN OVC030
KEWR FCSTER COMMENTS: CIGS 1000-1500FT COULD PREVAIL THRU 04Z.

*************************************************************************************
KTEB Terminal Weather:
FTUS31 KTEB 270242 AAA
KTEB 270239Z 2703/2724 02016G25KT 3SM -SN OVC020
     FM270600 36020G30KT 1/2SM SN FZFG OVC008
      TEMPO 2708/2710 1/4SM +SN FZFG BLSN VV005
     FM271500 34019G30KT 1/2SM SN FZFG BLSN VV008
     FM272100 33017G29KT 2SM -SN BLSN OVC020
KTEB FCSTER COMMENTS: CIGS 1000-1500FT COULD PREVAIL THRU 04Z. 

*************************************************************************************
KHPN Terminal Weather:
FTUS80 KHPN 270242 AAA
KHPN 270239Z 2703/2724 03018G28KT 1SM -SN OVC015
     FM270500 01022G32KT 1/4SM +SN FZFG BLSN VV004
     FM271200 34025G35KT 1/2SM SN FZFG BLSN OVC006
     FM272200 33020G33KT 2SM -SN BLSN OVC020 AMD NOT SKED
KHPN FCSTER COMMENTS: CIGS 1000-1500FT COULD PREVAIL THRU 04Z. 

*************************************************************************************
KISP Terminal Weather:
FTUS80 KISP 270251 AAA
KISP 270247Z 2703/2724 03026G38KT 1/2SM SN FZFG BLSN OVC008
     FM270500 02030G42KT 1/4SM +SN FZFG BLSN VV005
     FM271000 34029G40KT 1/2SM SN FZFG BLSN OVC006
     FM272300 34024G37KT 2SM -SN BLSN OVC015
KISP FCSTER COMMENTS: CIGS 1000-1500FT COULD PREVAIL THRU 01-02Z.  


*************************************************************************************
5 Day General Outlook:

.OUTLOOK FOR 00Z WEDNESDAY THROUGH SATURDAY...
.TUES NIGHT...MVFR IN THE EVENING...BCMG VFR BY LATE. N-NW WINDS 
G25-35KT.
.WEDNESDAY...VFR. NW WINDS G25-30KT POSSIBLE.
.WEDNESDAY NIGHT-THURSDAY...VFR.
.THU NGT...MVFR OR LOWER CONDITIONS IN LGT SN. 
.FRI...CHC MVFR IN LGT SN IN THE AM. VFR WITH NW WNDS G25-30KT IN
THE AFTN.
.SAT...VFR.



Click the Print Icon print icon below to print the briefing sheet